createdAt,value
2017-12-19T00:00:42.982Z,0.94
2017-12-19T00:01:22.238Z,0.83
2017-12-19T00:02:22.662Z,0.86
2017-12-19T00:03:23.074Z,0.81
2017-12-19T00:04:23.484Z,0.84
2017-12-19T00:05:23.906Z,0.88
2017-12-19T00:06:45.480Z,0.76
2017-12-19T00:07:24.739Z,0.83
2017-12-19T00:08:25.158Z,0.87
2017-12-19T00:09:25.587Z,0.88
2017-12-19T00:10:25.989Z,0.96
2017-12-19T00:11:26.412Z,0.94
2017-12-19T00:12:47.986Z,0.88
2017-12-19T00:13:27.264Z,0.94
2017-12-19T00:14:27.666Z,0.98
2017-12-19T00:15:28.080Z,0.91
2017-12-19T00:16:28.560Z,1.04
2017-12-19T00:17:28.914Z,0.92
2017-12-19T00:18:50.491Z,0.95
2017-12-19T00:19:29.755Z,0.91
2017-12-19T00:20:30.175Z,0.87
2017-12-19T00:21:30.592Z,0.78
2017-12-19T00:22:31.018Z,0.87
2017-12-19T00:23:31.429Z,0.83
2017-12-19T00:24:52.996Z,0.92
2017-12-19T00:25:32.268Z,0.77
2017-12-19T00:26:32.673Z,0.74
2017-12-19T00:27:33.093Z,0.76
2017-12-19T00:28:33.543Z,0.83
2017-12-19T00:29:33.958Z,0.80
2017-12-19T00:30:55.500Z,0.80
2017-12-19T00:31:34.762Z,0.76
2017-12-19T00:32:35.198Z,0.77
2017-12-19T00:33:35.602Z,0.74
2017-12-19T00:34:36.023Z,0.77
2017-12-19T00:35:36.432Z,0.77
2017-12-19T00:36:58.034Z,0.78
2017-12-19T00:37:37.270Z,0.87
2017-12-19T00:38:37.693Z,0.87
2017-12-19T00:39:38.102Z,0.83
2017-12-19T00:40:38.521Z,0.84
2017-12-19T00:41:38.941Z,0.94
2017-12-19T00:43:00.514Z,0.83
2017-12-19T00:43:39.773Z,0.77
2017-12-19T00:44:40.194Z,0.80
2017-12-19T00:45:40.607Z,0.60
2017-12-19T00:46:41.080Z,0.63
2017-12-19T00:47:41.448Z,0.66
2017-12-19T00:49:03.020Z,0.63
2017-12-19T00:49:42.284Z,0.62
2017-12-19T00:50:42.701Z,0.68
2017-12-19T00:51:43.125Z,0.63
2017-12-19T00:52:43.532Z,0.62
2017-12-19T00:53:43.963Z,0.77
2017-12-19T00:55:05.521Z,0.76
2017-12-19T00:55:44.790Z,0.77
2017-12-19T00:56:45.209Z,0.80
2017-12-19T00:57:45.666Z,0.92
2017-12-19T00:58:46.055Z,0.88
2017-12-19T00:59:46.467Z,0.99
2017-12-19T01:01:08.031Z,0.92
2017-12-19T01:01:47.298Z,0.88
2017-12-19T01:02:47.725Z,1.02
2017-12-19T01:03:48.132Z,1.01
2017-12-19T01:04:48.556Z,0.99
2017-12-19T01:05:48.965Z,1.01
2017-12-19T01:07:10.543Z,1.10
2017-12-19T01:07:49.793Z,1.06
2017-12-19T01:08:50.211Z,1.02
2017-12-19T01:09:50.634Z,1.06
2017-12-19T01:10:51.045Z,1.16
2017-12-19T01:11:51.471Z,1.22
2017-12-19T01:13:13.037Z,1.26
2017-12-19T01:13:52.294Z,1.28
2017-12-19T01:14:52.713Z,1.35
2017-12-19T01:15:53.130Z,1.32
2017-12-19T01:16:53.551Z,1.31
2017-12-19T01:17:53.979Z,1.26
2017-12-19T01:19:15.538Z,1.20
2017-12-19T01:19:54.812Z,1.30
2017-12-19T01:20:55.225Z,1.30
2017-12-19T01:21:55.661Z,1.30
2017-12-19T01:22:56.065Z,1.31
2017-12-19T01:23:56.481Z,1.30
2017-12-19T01:25:18.043Z,1.28
2017-12-19T01:25:57.314Z,1.30
2017-12-19T01:26:57.725Z,1.35
2017-12-19T01:27:58.146Z,1.30
2017-12-19T01:28:58.570Z,1.30
2017-12-19T01:29:58.988Z,1.37
2017-12-19T01:31:20.559Z,1.19
2017-12-19T01:31:59.822Z,1.20
2017-12-19T01:33:00.241Z,1.20
2017-12-19T01:34:00.656Z,1.23
2017-12-19T01:35:01.075Z,1.22
2017-12-19T01:36:01.486Z,1.22
2017-12-19T01:37:23.068Z,1.26
2017-12-19T01:38:02.324Z,1.28
2017-12-19T01:39:02.737Z,1.24
2017-12-19T01:40:03.167Z,1.16
2017-12-19T01:41:03.581Z,1.26
2017-12-19T01:42:03.989Z,1.28
2017-12-19T01:43:25.567Z,1.26
2017-12-19T01:44:04.826Z,1.30
2017-12-19T01:45:05.244Z,1.35
2017-12-19T01:46:05.661Z,1.23
2017-12-19T01:47:06.080Z,1.37
2017-12-19T01:48:06.500Z,1.40
2017-12-19T01:49:28.076Z,1.40
2017-12-19T01:50:07.342Z,1.45
2017-12-19T01:51:07.765Z,1.44
2017-12-19T01:52:08.175Z,1.49
2017-12-19T01:53:08.597Z,1.53
2017-12-19T01:54:09.010Z,1.56
2017-12-19T01:55:30.591Z,1.52
2017-12-19T01:56:09.843Z,1.58
2017-12-19T01:57:10.263Z,1.60
2017-12-19T01:58:10.678Z,1.55
2017-12-19T01:59:11.107Z,1.62
2017-12-19T02:00:11.517Z,1.55
2017-12-19T02:01:33.086Z,1.49
2017-12-19T02:02:12.357Z,1.59
2017-12-19T02:03:12.800Z,1.67
2017-12-19T02:04:13.184Z,1.53
2017-12-19T02:05:13.614Z,1.53
2017-12-19T02:06:14.027Z,1.66
2017-12-19T02:07:35.597Z,1.59
2017-12-19T02:08:14.860Z,1.62
2017-12-19T02:09:15.277Z,1.62
2017-12-19T02:10:15.695Z,1.60
2017-12-19T02:11:16.117Z,1.67
2017-12-19T02:12:16.581Z,1.71
2017-12-19T02:13:38.109Z,1.70
2017-12-19T02:14:17.377Z,1.77
2017-12-19T02:15:17.795Z,1.80
2017-12-19T02:16:18.206Z,1.85
2017-12-19T02:17:18.621Z,1.81
2017-12-19T02:18:19.043Z,1.80
2017-12-19T02:19:40.656Z,1.74
2017-12-19T02:20:19.876Z,1.77
2017-12-19T02:21:20.304Z,1.71
2017-12-19T02:22:20.710Z,1.80
2017-12-19T02:23:21.259Z,1.71
2017-12-19T02:24:21.546Z,1.78
2017-12-19T02:25:43.177Z,1.78
2017-12-19T02:26:22.379Z,1.77
2017-12-19T02:27:22.808Z,1.77
2017-12-19T02:28:23.219Z,1.78
2017-12-19T02:29:23.646Z,1.80
2017-12-19T02:30:24.055Z,1.81
2017-12-19T02:31:45.632Z,1.77
2017-12-19T02:32:24.897Z,1.88
2017-12-19T02:33:25.317Z,1.88
2017-12-19T02:34:25.730Z,1.95
2017-12-19T02:35:26.151Z,1.89
2017-12-19T02:36:26.582Z,2.00
2017-12-19T02:37:48.138Z,1.95
2017-12-19T02:38:27.402Z,1.97
2017-12-19T02:39:27.816Z,1.92
2017-12-19T02:40:28.239Z,1.91
2017-12-19T02:41:28.660Z,1.92
2017-12-19T02:42:29.077Z,1.97
2017-12-19T02:43:50.650Z,2.00
2017-12-19T02:44:29.913Z,1.91
2017-12-19T02:45:30.327Z,1.88
2017-12-19T02:46:30.749Z,1.95
2017-12-19T02:47:31.170Z,1.88
2017-12-19T02:48:31.581Z,1.91
2017-12-19T02:49:53.158Z,1.88
2017-12-19T02:50:32.418Z,1.94
2017-12-19T02:51:32.844Z,2.00
2017-12-19T02:52:33.256Z,2.06
2017-12-19T02:53:33.669Z,2.07
2017-12-19T02:54:34.090Z,2.08
2017-12-19T02:55:55.664Z,2.02
2017-12-19T02:56:34.928Z,2.13
2017-12-19T02:57:35.346Z,2.08
2017-12-19T02:58:35.783Z,2.20
2017-12-19T02:59:36.189Z,2.24
2017-12-19T03:00:36.610Z,2.22
2017-12-19T03:01:58.177Z,2.26
2017-12-19T03:02:37.451Z,2.24
2017-12-19T03:03:37.864Z,2.28
2017-12-19T03:04:38.281Z,2.24
2017-12-19T03:05:38.698Z,2.31
2017-12-19T03:06:39.118Z,2.35
2017-12-19T03:08:00.692Z,2.31
2017-12-19T03:08:39.952Z,2.42
2017-12-19T03:09:40.375Z,2.42
2017-12-19T03:10:40.787Z,2.43
2017-12-19T03:11:41.204Z,2.46
2017-12-19T03:12:41.640Z,2.43
2017-12-19T03:14:03.199Z,2.32
2017-12-19T03:14:42.471Z,2.33
2017-12-19T03:15:42.885Z,2.42
2017-12-19T03:16:43.307Z,2.43
2017-12-19T03:17:43.724Z,2.51
2017-12-19T03:18:44.140Z,2.46
2017-12-19T03:20:05.726Z,2.51
2017-12-19T03:20:44.985Z,2.53
2017-12-19T03:21:45.396Z,2.44
2017-12-19T03:22:45.820Z,2.43
2017-12-19T03:23:46.231Z,2.44
2017-12-19T03:24:46.661Z,2.35
2017-12-19T03:26:08.300Z,2.29
2017-12-19T03:26:47.489Z,2.44
2017-12-19T03:27:47.910Z,2.44
2017-12-19T03:28:48.335Z,2.44
2017-12-19T03:29:48.764Z,2.39
2017-12-19T03:30:49.178Z,2.36
2017-12-19T03:32:10.756Z,2.39
2017-12-19T03:32:50.005Z,2.42
2017-12-19T03:33:50.426Z,2.46
2017-12-19T03:34:50.835Z,2.33
2017-12-19T03:35:51.255Z,2.42
2017-12-19T03:36:51.678Z,2.44
2017-12-19T03:38:13.257Z,2.51
2017-12-19T03:38:52.520Z,2.49
2017-12-19T03:39:52.937Z,2.44
2017-12-19T03:40:53.361Z,2.56
2017-12-19T03:41:53.783Z,2.54
2017-12-19T03:42:54.195Z,2.56
2017-12-19T03:44:15.784Z,2.65
2017-12-19T03:44:55.040Z,2.65
2017-12-19T03:45:55.456Z,2.60
2017-12-19T03:46:55.876Z,2.69
2017-12-19T03:47:56.314Z,2.64
2017-12-19T03:48:56.704Z,2.67
2017-12-19T03:50:18.285Z,2.64
2017-12-19T03:50:57.616Z,2.60
2017-12-19T03:51:57.977Z,2.51
2017-12-19T03:52:58.381Z,2.51
2017-12-19T03:53:58.824Z,2.56
2017-12-19T03:54:59.221Z,2.64
2017-12-19T03:56:20.794Z,2.50
2017-12-19T03:57:00.064Z,2.56
2017-12-19T03:58:00.487Z,2.56
2017-12-19T03:59:00.896Z,2.53
2017-12-19T04:00:01.340Z,2.64
2017-12-19T04:01:01.735Z,2.60
2017-12-19T04:02:23.309Z,2.67
2017-12-19T04:03:02.569Z,2.62
2017-12-19T04:04:02.984Z,2.68
2017-12-19T04:05:03.412Z,2.44
2017-12-19T04:06:03.822Z,2.31
2017-12-19T04:07:04.241Z,2.20
2017-12-19T04:08:25.820Z,2.39
2017-12-19T04:09:05.085Z,2.43
2017-12-19T04:10:05.496Z,2.64
2017-12-19T04:11:05.935Z,2.46
2017-12-19T04:12:06.346Z,2.54
2017-12-19T04:13:06.786Z,2.67
2017-12-19T04:14:28.347Z,2.64
2017-12-19T04:15:07.595Z,2.69
2017-12-19T04:16:08.017Z,2.65
2017-12-19T04:17:08.462Z,2.75
2017-12-19T04:18:08.859Z,2.65
2017-12-19T04:19:09.267Z,2.65
2017-12-19T04:20:30.851Z,2.71
2017-12-19T04:21:10.134Z,2.71
2017-12-19T04:22:10.541Z,2.72
2017-12-19T04:23:10.951Z,2.82
2017-12-19T04:24:11.361Z,2.83
2017-12-19T04:25:11.790Z,2.85
2017-12-19T04:26:33.364Z,2.89
2017-12-19T04:27:12.627Z,2.90
2017-12-19T04:28:13.051Z,2.89
2017-12-19T04:29:13.464Z,2.85
2017-12-19T04:30:13.903Z,2.86
2017-12-19T04:31:14.301Z,2.92
2017-12-19T04:32:35.874Z,2.75
2017-12-19T04:33:15.152Z,2.68
2017-12-19T04:34:15.559Z,2.68
2017-12-19T04:35:15.978Z,2.75
2017-12-19T04:36:16.394Z,2.75
2017-12-19T04:37:16.818Z,2.72
2017-12-19T04:38:38.396Z,2.74
2017-12-19T04:39:17.655Z,2.69
2017-12-19T04:40:18.071Z,2.67
2017-12-19T04:41:18.498Z,2.74
2017-12-19T04:42:18.916Z,2.71
2017-12-19T04:43:19.328Z,2.74
2017-12-19T04:44:40.907Z,2.68
2017-12-19T04:45:20.168Z,2.77
2017-12-19T04:46:20.582Z,2.82
2017-12-19T04:47:21.014Z,2.82
2017-12-19T04:48:21.451Z,2.83
2017-12-19T04:49:21.847Z,2.74
2017-12-19T04:50:43.417Z,2.83
2017-12-19T04:51:22.683Z,2.80
2017-12-19T04:52:23.104Z,2.95
2017-12-19T04:53:23.530Z,3.00
2017-12-19T04:54:23.956Z,2.95
2017-12-19T04:55:24.363Z,3.05
2017-12-19T04:56:45.951Z,3.04
2017-12-19T04:57:25.206Z,3.03
2017-12-19T04:58:25.615Z,2.98
2017-12-19T04:59:26.044Z,3.01
2017-12-19T05:00:26.447Z,3.01
2017-12-19T05:01:26.876Z,3.01
2017-12-19T05:02:48.450Z,3.07
2017-12-19T05:03:27.714Z,3.05
2017-12-19T05:04:28.139Z,3.07
2017-12-19T05:05:28.576Z,2.98
2017-12-19T05:06:29.001Z,3.07
2017-12-19T05:07:29.388Z,3.14
2017-12-19T05:08:50.970Z,3.11
2017-12-19T05:09:30.251Z,3.10
2017-12-19T05:10:30.643Z,3.01
2017-12-19T05:11:31.075Z,2.97
2017-12-19T05:12:31.483Z,-40.00
2017-12-19T05:13:31.902Z,2.95
2017-12-19T05:14:53.479Z,-40.00
2017-12-19T05:15:32.748Z,-40.00
2017-12-19T05:16:33.234Z,-40.00
2017-12-19T05:17:33.575Z,-40.00
2017-12-19T05:18:33.998Z,-40.00
2017-12-19T05:19:34.443Z,-40.00
2017-12-19T05:20:55.991Z,-40.00
2017-12-19T05:21:35.260Z,-40.00
2017-12-19T05:22:35.687Z,-40.00
2017-12-19T05:23:36.097Z,-40.00
2017-12-19T05:24:36.520Z,-40.00
2017-12-19T05:25:36.952Z,-40.00
2017-12-19T05:26:58.506Z,3.31
2017-12-19T05:27:37.797Z,-40.00
2017-12-19T05:28:38.199Z,-40.00
2017-12-19T05:29:38.622Z,-40.00
2017-12-19T05:30:39.041Z,-40.00
2017-12-19T05:31:39.458Z,-40.00
2017-12-19T05:33:01.035Z,-40.00
2017-12-19T05:33:40.292Z,3.26
2017-12-19T05:34:40.757Z,2.87
2017-12-19T05:35:41.142Z,-40.00
2017-12-19T05:36:41.560Z,2.98
2017-12-19T05:37:41.975Z,3.00
2017-12-19T05:39:03.547Z,3.10
2017-12-19T05:39:42.805Z,-40.00
2017-12-19T05:40:43.272Z,3.00
2017-12-19T05:41:43.650Z,2.87
2017-12-19T05:42:44.072Z,2.95
2017-12-19T05:43:44.490Z,2.97
2017-12-19T05:45:06.065Z,3.10
2017-12-19T05:45:45.325Z,3.11
2017-12-19T05:46:45.747Z,3.13
2017-12-19T05:47:46.165Z,3.07
2017-12-19T05:48:46.578Z,3.13
2017-12-19T05:49:47.019Z,3.26
2017-12-19T05:51:08.573Z,3.28
2017-12-19T05:51:47.922Z,-40.00
2017-12-19T05:52:48.266Z,3.22
2017-12-19T05:53:48.705Z,3.26
2017-12-19T05:54:49.104Z,3.31
2017-12-19T05:55:49.521Z,3.42
2017-12-19T05:57:11.102Z,3.40
2017-12-19T05:57:50.370Z,3.28
2017-12-19T05:58:50.781Z,3.40
2017-12-19T05:59:51.196Z,3.42
2017-12-19T06:00:51.618Z,3.44
2017-12-19T06:01:52.038Z,3.28
2017-12-19T06:03:13.620Z,3.47
2017-12-19T06:03:52.877Z,3.41
2017-12-19T06:04:53.297Z,3.50
2017-12-19T06:05:53.717Z,3.58
2017-12-19T06:06:54.135Z,3.56
2017-12-19T06:07:54.567Z,3.51
2017-12-19T06:09:16.130Z,3.53
2017-12-19T06:09:55.401Z,3.55
2017-12-19T06:10:55.841Z,3.59
2017-12-19T06:11:56.237Z,3.66
2017-12-19T06:12:56.658Z,3.29
2017-12-19T06:13:57.089Z,3.22
2017-12-19T06:15:18.659Z,3.13
2017-12-19T06:15:58.026Z,3.21
2017-12-19T06:16:58.391Z,3.18
2017-12-19T06:17:58.754Z,3.21
2017-12-19T06:18:59.173Z,3.11
2017-12-19T06:19:59.587Z,3.07
2017-12-19T06:21:21.168Z,3.23
2017-12-19T06:22:00.433Z,3.16
2017-12-19T06:23:00.861Z,3.23
2017-12-19T06:24:01.276Z,3.16
2017-12-19T06:25:01.732Z,3.19
2017-12-19T06:26:02.111Z,3.13
2017-12-19T06:27:23.687Z,3.08
2017-12-19T06:28:02.990Z,3.13
2017-12-19T06:29:03.374Z,3.13
2017-12-19T06:30:03.792Z,3.10
2017-12-19T06:31:04.216Z,3.03
2017-12-19T06:32:04.624Z,3.11
2017-12-19T06:33:26.203Z,3.14
2017-12-19T06:34:05.469Z,3.08
2017-12-19T06:35:05.890Z,3.11
2017-12-19T06:36:06.304Z,2.98
2017-12-19T06:37:06.726Z,2.98
2017-12-19T06:38:07.143Z,2.95
2017-12-19T06:39:28.735Z,2.95
2017-12-19T06:40:07.988Z,3.11
2017-12-19T06:41:08.406Z,3.14
2017-12-19T06:42:08.822Z,3.22
2017-12-19T06:43:09.244Z,3.32
2017-12-19T06:44:09.660Z,3.34
2017-12-19T06:45:31.238Z,3.36
2017-12-19T06:46:10.495Z,3.28
2017-12-19T06:47:10.920Z,3.29
2017-12-19T06:48:11.342Z,3.40
2017-12-19T06:49:11.754Z,3.32
2017-12-19T06:50:12.177Z,3.21
2017-12-19T06:51:33.750Z,3.29
2017-12-19T06:52:13.023Z,3.45
2017-12-19T06:53:13.584Z,3.50
2017-12-19T06:54:13.856Z,3.44
2017-12-19T06:55:14.271Z,3.48
2017-12-19T06:56:14.728Z,3.56
2017-12-19T06:57:36.267Z,3.28
2017-12-19T06:58:15.535Z,3.48
2017-12-19T06:59:15.954Z,3.37
2017-12-19T07:00:16.393Z,3.10
2017-12-19T07:01:16.790Z,3.29
2017-12-19T07:02:17.214Z,3.19
2017-12-19T07:03:38.801Z,3.11
2017-12-19T07:04:18.060Z,3.04
2017-12-19T07:05:18.474Z,3.21
2017-12-19T07:06:18.886Z,3.11
2017-12-19T07:07:19.312Z,3.13
2017-12-19T07:08:19.737Z,3.23
2017-12-19T07:09:41.310Z,3.29
2017-12-19T07:10:20.583Z,3.45
2017-12-19T07:11:20.997Z,3.37
2017-12-19T07:12:21.413Z,3.40
2017-12-19T07:13:21.829Z,3.29
2017-12-19T07:14:22.254Z,3.41
2017-12-19T07:15:43.836Z,3.45
2017-12-19T07:16:23.107Z,3.40
2017-12-19T07:17:23.504Z,3.53
2017-12-19T07:18:23.931Z,3.55
2017-12-19T07:19:24.353Z,3.55
2017-12-19T07:20:24.773Z,3.53
2017-12-19T07:21:46.352Z,3.53
2017-12-19T07:22:25.615Z,3.58
2017-12-19T07:23:26.025Z,3.58
2017-12-19T07:24:26.514Z,3.58
2017-12-19T07:25:26.875Z,3.50
2017-12-19T07:26:27.288Z,3.59
2017-12-19T07:27:48.864Z,3.56
2017-12-19T07:28:28.169Z,3.66
2017-12-19T07:29:28.569Z,3.60
2017-12-19T07:30:28.972Z,3.80
2017-12-19T07:31:29.408Z,3.69
2017-12-19T07:32:29.817Z,3.68
2017-12-19T07:33:51.389Z,3.87
2017-12-19T07:34:30.660Z,3.58
2017-12-19T07:35:31.072Z,3.63
2017-12-19T07:36:31.500Z,-40.00
2017-12-19T07:37:31.937Z,3.77
2017-12-19T07:38:32.320Z,3.74
2017-12-19T07:39:53.900Z,3.60
2017-12-19T07:40:33.168Z,3.63
2017-12-19T07:41:33.596Z,3.77
2017-12-19T07:42:34.017Z,3.68
2017-12-19T07:43:34.444Z,3.77
2017-12-19T07:44:34.848Z,3.78
2017-12-19T07:45:56.443Z,3.56
2017-12-19T07:46:35.691Z,3.69
2017-12-19T07:47:36.099Z,3.60
2017-12-19T07:48:36.528Z,3.58
2017-12-19T07:49:36.950Z,3.63
2017-12-19T07:50:37.399Z,3.58
2017-12-19T07:51:59.006Z,3.58
2017-12-19T07:52:38.255Z,3.50
2017-12-19T07:53:38.629Z,3.47
2017-12-19T07:54:39.044Z,3.47
2017-12-19T07:55:39.466Z,3.56
2017-12-19T07:56:39.964Z,3.48
2017-12-19T07:58:01.464Z,3.29
2017-12-19T07:58:40.720Z,3.13
2017-12-19T07:59:41.153Z,3.42
2017-12-19T08:00:41.576Z,3.22
2017-12-19T08:01:41.999Z,3.31
2017-12-19T08:02:42.405Z,3.10
2017-12-19T08:04:03.995Z,3.45
2017-12-19T08:04:43.243Z,3.51
2017-12-19T08:05:43.690Z,3.25
2017-12-19T08:06:44.097Z,3.37
2017-12-19T08:07:44.515Z,3.29
2017-12-19T08:08:44.931Z,3.37
2017-12-19T08:10:06.507Z,3.45
2017-12-19T08:10:45.774Z,3.45
2017-12-19T08:11:46.192Z,3.42
2017-12-19T08:12:46.603Z,3.62
2017-12-19T08:13:47.028Z,3.60
2017-12-19T08:14:47.441Z,3.66
2017-12-19T08:16:09.020Z,3.56
2017-12-19T08:16:48.286Z,3.41
2017-12-19T08:17:48.705Z,3.60
2017-12-19T08:18:49.132Z,3.59
2017-12-19T08:19:49.551Z,3.55
2017-12-19T08:20:49.970Z,3.47
2017-12-19T08:22:11.542Z,3.59
2017-12-19T08:22:50.806Z,3.66
2017-12-19T08:23:51.234Z,3.66
2017-12-19T08:24:51.656Z,3.68
2017-12-19T08:25:52.063Z,3.69
2017-12-19T08:26:52.490Z,3.80
2017-12-19T08:28:14.065Z,3.74
2017-12-19T08:28:53.328Z,3.84
2017-12-19T08:29:53.747Z,3.81
2017-12-19T08:30:54.229Z,3.87
2017-12-19T08:31:54.580Z,3.55
2017-12-19T08:32:55.009Z,3.31
2017-12-19T08:34:16.579Z,3.25
2017-12-19T08:34:55.846Z,3.29
2017-12-19T08:35:56.261Z,3.41
2017-12-19T08:36:56.678Z,3.56
2017-12-19T08:37:57.111Z,3.44
2017-12-19T08:38:57.522Z,3.56
2017-12-19T08:40:19.117Z,3.63
2017-12-19T08:40:58.398Z,3.58
2017-12-19T08:41:58.780Z,3.60
2017-12-19T08:42:59.205Z,3.56
2017-12-19T08:43:59.639Z,3.55
2017-12-19T08:45:00.043Z,3.68
2017-12-19T08:46:21.635Z,3.66
2017-12-19T08:47:00.905Z,3.77
2017-12-19T08:48:01.309Z,3.73
2017-12-19T08:49:01.725Z,3.73
2017-12-19T08:50:02.141Z,3.83
2017-12-19T08:51:02.563Z,3.92
2017-12-19T08:52:24.139Z,3.92
2017-12-19T08:53:03.400Z,3.91
2017-12-19T08:54:03.824Z,3.96
2017-12-19T08:55:04.239Z,3.98
2017-12-19T08:56:04.723Z,3.96
2017-12-19T08:57:05.110Z,3.96
2017-12-19T08:58:26.656Z,4.02
2017-12-19T08:59:05.923Z,4.13
2017-12-19T09:00:06.341Z,4.16
2017-12-19T09:01:06.770Z,4.08
2017-12-19T09:02:07.182Z,3.98
2017-12-19T09:03:07.600Z,4.12
2017-12-19T09:04:29.186Z,4.04
2017-12-19T09:05:08.453Z,4.10
2017-12-19T09:06:08.871Z,4.04
2017-12-19T09:07:09.283Z,3.96
2017-12-19T09:08:09.707Z,3.95
2017-12-19T09:09:10.139Z,3.78
2017-12-19T09:10:31.693Z,3.59
2017-12-19T09:11:10.971Z,3.65
2017-12-19T09:12:11.394Z,3.56
2017-12-19T09:13:11.810Z,3.62
2017-12-19T09:14:12.227Z,3.53
2017-12-19T09:15:12.648Z,3.60
2017-12-19T09:16:34.218Z,3.74
2017-12-19T09:17:13.483Z,3.80
2017-12-19T09:18:13.901Z,3.77
2017-12-19T09:19:14.324Z,3.69
2017-12-19T09:20:14.747Z,3.73
2017-12-19T09:21:15.171Z,3.63
2017-12-19T09:22:36.743Z,3.68
2017-12-19T09:23:16.007Z,3.73
2017-12-19T09:24:16.426Z,3.78
2017-12-19T09:25:16.842Z,3.92
2017-12-19T09:26:17.270Z,3.98
2017-12-19T09:27:17.684Z,3.78
2017-12-19T09:28:39.304Z,3.56
2017-12-19T09:29:18.527Z,3.68
2017-12-19T09:30:18.941Z,3.76
2017-12-19T09:31:19.389Z,3.80
2017-12-19T09:32:19.797Z,3.81
2017-12-19T09:33:20.205Z,3.58
2017-12-19T09:34:41.781Z,3.58
2017-12-19T09:35:21.050Z,3.58
2017-12-19T09:36:21.464Z,3.50
2017-12-19T09:37:21.888Z,3.47
2017-12-19T09:38:22.317Z,3.56
2017-12-19T09:39:22.727Z,3.41
2017-12-19T09:40:44.321Z,3.45
2017-12-19T09:41:23.564Z,3.29
2017-12-19T09:42:23.984Z,3.47
2017-12-19T09:43:24.413Z,3.47
2017-12-19T09:44:24.847Z,3.29
2017-12-19T09:45:25.246Z,3.51
2017-12-19T09:46:46.827Z,3.51
2017-12-19T09:47:26.102Z,3.63
2017-12-19T09:48:26.512Z,3.53
2017-12-19T09:49:26.934Z,3.50
2017-12-19T09:50:27.351Z,3.60
2017-12-19T09:51:27.766Z,3.77
2017-12-19T09:52:49.354Z,3.94
2017-12-19T09:53:28.618Z,3.87
2017-12-19T09:54:29.022Z,3.60
2017-12-19T09:55:29.457Z,3.53
2017-12-19T09:56:29.865Z,3.78
2017-12-19T09:57:30.296Z,3.92
2017-12-19T09:58:51.865Z,3.87
2017-12-19T09:59:31.126Z,3.83
2017-12-19T10:00:31.548Z,3.91
2017-12-19T10:01:31.966Z,3.99
2017-12-19T10:02:32.384Z,4.12
2017-12-19T10:03:32.805Z,4.16
2017-12-19T10:04:54.386Z,3.95
2017-12-19T10:05:33.649Z,3.95
2017-12-19T10:06:34.069Z,3.94
2017-12-19T10:07:34.502Z,4.13
2017-12-19T10:08:34.917Z,4.04
2017-12-19T10:09:35.343Z,4.13
2017-12-19T10:10:56.903Z,4.04
2017-12-19T10:11:36.178Z,3.91
2017-12-19T10:12:36.613Z,4.01
2017-12-19T10:13:37.124Z,3.98
2017-12-19T10:14:37.443Z,3.94
2017-12-19T10:15:37.858Z,3.88
2017-12-19T10:16:59.432Z,3.98
2017-12-19T10:17:38.727Z,4.05
2017-12-19T10:18:39.111Z,4.10
2017-12-19T10:19:39.582Z,3.98
2017-12-19T10:20:39.968Z,4.06
2017-12-19T10:21:40.382Z,3.98
2017-12-19T10:23:01.947Z,3.80
2017-12-19T10:23:41.222Z,3.98
2017-12-19T10:24:41.644Z,4.06
2017-12-19T10:25:42.056Z,4.02
2017-12-19T10:26:42.477Z,4.08
2017-12-19T10:27:42.898Z,4.08
2017-12-19T10:29:04.472Z,4.01
2017-12-19T10:29:43.754Z,3.96
2017-12-19T10:30:44.173Z,3.95
2017-12-19T10:31:44.585Z,4.17
2017-12-19T10:32:45.011Z,4.13
2017-12-19T10:33:45.421Z,4.16
2017-12-19T10:35:07.005Z,4.17
2017-12-19T10:35:46.262Z,4.20
2017-12-19T10:36:46.701Z,4.06
2017-12-19T10:37:47.104Z,3.99
2017-12-19T10:38:47.534Z,3.88
2017-12-19T10:39:47.952Z,3.91
2017-12-19T10:41:09.528Z,4.01
2017-12-19T10:41:48.789Z,3.99
2017-12-19T10:42:49.201Z,3.83
2017-12-19T10:43:49.629Z,3.94
2017-12-19T10:44:50.066Z,3.94
2017-12-19T10:45:50.473Z,3.78
2017-12-19T10:47:12.044Z,3.92
2017-12-19T10:47:51.315Z,3.98
2017-12-19T10:48:51.733Z,3.94
2017-12-19T10:49:52.153Z,4.06
2017-12-19T10:50:52.570Z,3.98
2017-12-19T10:51:59.754Z,4.08
2017-12-19T10:53:14.629Z,4.13
2017-12-19T10:53:53.836Z,4.13
2017-12-19T10:54:54.253Z,4.40
2017-12-19T10:55:54.682Z,4.30
2017-12-19T10:56:55.095Z,4.14
2017-12-19T10:57:55.521Z,4.23
2017-12-19T10:59:17.094Z,4.32
2017-12-19T10:59:56.357Z,4.34
2017-12-19T11:00:56.780Z,4.50
2017-12-19T11:01:57.223Z,4.63
2017-12-19T11:02:57.703Z,4.71
2017-12-19T11:03:58.044Z,4.44
2017-12-19T11:05:19.635Z,4.66
2017-12-19T11:05:58.887Z,4.58
2017-12-19T11:06:59.314Z,4.55
2017-12-19T11:07:59.728Z,4.31
2017-12-19T11:09:00.145Z,4.30
2017-12-19T11:10:00.572Z,4.31
2017-12-19T11:11:22.147Z,4.30
2017-12-19T11:12:01.418Z,4.37
2017-12-19T11:13:01.835Z,4.34
2017-12-19T11:14:02.255Z,4.40
2017-12-19T11:15:02.729Z,4.53
2017-12-19T11:16:03.096Z,4.55
2017-12-19T11:17:24.672Z,4.75
2017-12-19T11:18:03.939Z,4.70
2017-12-19T11:19:04.349Z,4.48
2017-12-19T11:20:04.780Z,4.70
2017-12-19T11:21:05.193Z,4.82
2017-12-19T11:22:05.621Z,4.56
2017-12-19T11:23:27.192Z,4.71
2017-12-19T11:24:06.457Z,4.77
2017-12-19T11:25:06.878Z,4.78
2017-12-19T11:26:07.312Z,4.89
2017-12-19T11:27:07.722Z,4.96
2017-12-19T11:28:08.152Z,4.80
2017-12-19T11:29:29.770Z,4.80
2017-12-19T11:30:08.991Z,4.80
2017-12-19T11:31:09.516Z,4.56
2017-12-19T11:32:09.826Z,4.49
2017-12-19T11:33:10.255Z,-40.00
2017-12-19T11:34:10.665Z,4.38
2017-12-19T11:35:32.244Z,4.71
2017-12-19T11:36:11.511Z,-40.00
2017-12-19T11:37:11.930Z,-40.00
2017-12-19T11:38:12.354Z,4.62
2017-12-19T11:39:12.778Z,4.84
2017-12-19T11:40:13.194Z,4.71
2017-12-19T11:41:34.777Z,4.48
2017-12-19T11:42:14.035Z,4.74
2017-12-19T11:43:14.453Z,4.73
2017-12-19T11:44:14.879Z,4.74
2017-12-19T11:45:15.300Z,4.78
2017-12-19T11:46:15.729Z,4.74
2017-12-19T11:47:37.305Z,4.68
2017-12-19T11:48:16.562Z,4.59
2017-12-19T11:49:16.982Z,4.58
2017-12-19T11:50:17.407Z,4.58
2017-12-19T11:51:17.828Z,4.55
2017-12-19T11:52:18.246Z,4.42
2017-12-19T11:53:39.830Z,4.73
2017-12-19T11:54:19.135Z,4.49
2017-12-19T11:55:19.505Z,4.52
2017-12-19T11:56:19.934Z,4.63
2017-12-19T11:57:20.354Z,4.48
2017-12-19T11:58:20.774Z,4.50
2017-12-19T11:59:42.359Z,4.42
2017-12-19T12:00:21.727Z,4.40
2017-12-19T12:01:22.043Z,4.42
2017-12-19T12:02:22.475Z,4.35
2017-12-19T12:03:22.883Z,4.50
2017-12-19T12:04:23.319Z,4.30
2017-12-19T12:05:44.879Z,4.32
2017-12-19T12:06:24.142Z,4.34
2017-12-19T12:07:24.567Z,4.30
2017-12-19T12:08:24.984Z,4.32
2017-12-19T12:09:25.405Z,4.40
2017-12-19T12:10:25.827Z,4.48
2017-12-19T12:11:47.406Z,4.52
2017-12-19T12:12:26.671Z,4.40
2017-12-19T12:13:27.088Z,4.17
2017-12-19T12:14:27.513Z,4.24
2017-12-19T12:15:27.940Z,4.12
2017-12-19T12:16:28.352Z,4.31
2017-12-19T12:17:49.929Z,4.24
2017-12-19T12:18:29.190Z,4.19
2017-12-19T12:19:29.619Z,4.23
2017-12-19T12:20:30.033Z,4.31
2017-12-19T12:21:30.465Z,4.31
2017-12-19T12:22:30.885Z,4.35
2017-12-19T12:23:52.452Z,4.31
2017-12-19T12:24:31.715Z,4.32
2017-12-19T12:25:32.136Z,4.34
2017-12-19T12:26:32.575Z,4.45
2017-12-19T12:27:32.976Z,4.19
2017-12-19T12:28:33.442Z,4.23
2017-12-19T12:29:54.976Z,4.14
2017-12-19T12:30:34.245Z,4.23
2017-12-19T12:31:34.665Z,4.20
2017-12-19T12:32:35.089Z,4.52
2017-12-19T12:33:35.580Z,4.63
2017-12-19T12:34:35.926Z,4.62
2017-12-19T12:35:57.520Z,4.52
2017-12-19T12:36:36.817Z,4.44
2017-12-19T12:37:37.190Z,4.38
2017-12-19T12:38:37.614Z,4.35
2017-12-19T12:39:38.032Z,4.41
2017-12-19T12:40:38.444Z,4.28
2017-12-19T12:42:00.025Z,4.35
2017-12-19T12:42:39.286Z,4.38
2017-12-19T12:43:39.710Z,4.28
2017-12-19T12:44:40.135Z,4.35
2017-12-19T12:45:40.558Z,4.30
2017-12-19T12:46:40.966Z,4.42
2017-12-19T12:48:02.553Z,4.30
2017-12-19T12:48:41.810Z,4.34
2017-12-19T12:49:42.229Z,4.30
2017-12-19T12:50:42.669Z,4.31
2017-12-19T12:51:43.085Z,4.30
2017-12-19T12:52:43.500Z,4.26
2017-12-19T12:54:05.070Z,4.37
2017-12-19T12:54:44.337Z,4.24
2017-12-19T12:55:44.765Z,4.35
2017-12-19T12:56:45.215Z,4.32
2017-12-19T12:57:45.642Z,4.32
2017-12-19T12:58:46.024Z,4.45
2017-12-19T13:00:07.625Z,4.31
2017-12-19T13:00:46.961Z,4.28
2017-12-19T13:01:47.296Z,4.28
2017-12-19T13:02:47.713Z,4.20
2017-12-19T13:03:48.123Z,4.22
2017-12-19T13:04:48.536Z,4.30
2017-12-19T13:06:10.133Z,4.32
2017-12-19T13:06:49.393Z,4.31
2017-12-19T13:07:49.804Z,4.32
2017-12-19T13:08:50.238Z,4.30
2017-12-19T13:09:50.640Z,4.32
2017-12-19T13:10:51.069Z,4.26
2017-12-19T13:12:12.667Z,4.26
2017-12-19T13:12:51.934Z,4.42
2017-12-19T13:13:52.330Z,4.41
2017-12-19T13:14:52.797Z,4.53
2017-12-19T13:15:53.185Z,4.37
2017-12-19T13:16:53.582Z,4.45
2017-12-19T13:18:15.176Z,4.42
2017-12-19T13:18:54.426Z,4.34
2017-12-19T13:19:54.854Z,4.42
2017-12-19T13:20:55.286Z,4.41
2017-12-19T13:21:55.731Z,4.42